Elsberry, Missouri
Current Conditions -  °F | °C
As of 9:54 AM on Sunday 25 Jan 2015 (Local Time) from KSET Reporting Station
Haze Haze  
Wind Chill: 44°   Ceiling: 900
Heat Index: 44°   Visibility: 2mi
Dew Point: 43°   Wind: 0mph
Humidity: 96%   Direction: NA
Pressure: 29.58"   Gusts: NA
Location:  39.17°N, 90.78°W
Report Text: KSET 251554Z AUTO 00000KT 2SM BR OVC009 07/06 A2958 RMK AO2 SLP016 T00670061
Loading
Personal Weather Stations






























Interactive Weather Map New forecast layout! Learn more

10-Day Weather Forecast

Advertisements
Track Severe Weather on mobile